sensor_id;sensor_type;location;lat;lon;timestamp;P1;durP1;ratioP1;P2;durP2;ratioP2
2187;SDS011;1100;52.014;8.540;2023-02-28T00:00:29;5.95;;;1.58;;
2187;SDS011;1100;52.014;8.540;2023-02-28T00:02:55;7.80;;;1.55;;
2187;SDS011;1100;52.014;8.540;2023-02-28T00:05:21;6.13;;;1.70;;
2187;SDS011;1100;52.014;8.540;2023-02-28T00:07:48;6.25;;;1.98;;
2187;SDS011;1100;52.014;8.540;2023-02-28T00:10:16;6.27;;;1.63;;
2187;SDS011;1100;52.014;8.540;2023-02-28T00:12:52;8.38;;;1.80;;
2187;SDS011;1100;52.014;8.540;2023-02-28T00:15:19;7.88;;;2.05;;
2187;SDS011;1100;52.014;8.540;2023-02-28T00:17:45;6.13;;;2.00;;
2187;SDS011;1100;52.014;8.540;2023-02-28T00:20:11;6.77;;;1.77;;
2187;SDS011;1100;52.014;8.540;2023-02-28T00:22:38;6.43;;;1.63;;
2187;SDS011;1100;52.014;8.540;2023-02-28T00:25:06;6.90;;;1.75;;
2187;SDS011;1100;52.014;8.540;2023-02-28T00:27:32;6.68;;;1.80;;
2187;SDS011;1100;52.014;8.540;2023-02-28T00:29:59;8.33;;;1.90;;
2187;SDS011;1100;52.014;8.540;2023-02-28T00:32:24;6.80;;;1.48;;
2187;SDS011;1100;52.014;8.540;2023-02-28T00:34:50;6.07;;;1.73;;
2187;SDS011;1100;52.014;8.540;2023-02-28T00:37:15;7.87;;;1.63;;
2187;SDS011;1100;52.014;8.540;2023-02-28T00:39:40;6.45;;;1.75;;
2187;SDS011;1100;52.014;8.540;2023-02-28T00:42:06;8.60;;;1.70;;
2187;SDS011;1100;52.014;8.540;2023-02-28T00:44:32;7.83;;;1.43;;
2187;SDS011;1100;52.014;8.540;2023-02-28T00:46:58;8.45;;;2.38;;
2187;SDS011;1100;52.014;8.540;2023-02-28T00:49:24;5.07;;;1.70;;
2187;SDS011;1100;52.014;8.540;2023-02-28T00:51:51;7.20;;;1.40;;
2187;SDS011;1100;52.014;8.540;2023-02-28T00:54:17;7.85;;;1.77;;
2187;SDS011;1100;52.014;8.540;2023-02-28T00:56:42;4.90;;;1.50;;
2187;SDS011;1100;52.014;8.540;2023-02-28T00:59:07;6.23;;;1.80;;
2187;SDS011;1100;52.014;8.540;2023-02-28T01:01:33;6.80;;;1.77;;
2187;SDS011;1100;52.014;8.540;2023-02-28T01:03:58;6.27;;;1.70;;
2187;SDS011;1100;52.014;8.540;2023-02-28T01:06:24;6.87;;;1.97;;
2187;SDS011;1100;52.014;8.540;2023-02-28T01:08:49;9.40;;;2.10;;
2187;SDS011;1100;52.014;8.540;2023-02-28T01:11:15;6.75;;;1.90;;
2187;SDS011;1100;52.014;8.540;2023-02-28T01:13:42;7.70;;;1.98;;
2187;SDS011;1100;52.014;8.540;2023-02-28T01:16:08;6.30;;;2.20;;
2187;SDS011;1100;52.014;8.540;2023-02-28T01:18:34;7.20;;;2.00;;
2187;SDS011;1100;52.014;8.540;2023-02-28T01:21:07;6.63;;;1.90;;
2187;SDS011;1100;52.014;8.540;2023-02-28T01:23:37;9.63;;;2.22;;
2187;SDS011;1100;52.014;8.540;2023-02-28T01:26:07;7.30;;;2.22;;
2187;SDS011;1100;52.014;8.540;2023-02-28T01:28:34;8.02;;;2.15;;
2187;SDS011;1100;52.014;8.540;2023-02-28T01:30:59;6.20;;;1.97;;
2187;SDS011;1100;52.014;8.540;2023-02-28T01:33:25;7.17;;;2.30;;
2187;SDS011;1100;52.014;8.540;2023-02-28T01:35:57;8.50;;;2.38;;
2187;SDS011;1100;52.014;8.540;2023-02-28T01:38:29;8.63;;;2.30;;
2187;SDS011;1100;52.014;8.540;2023-02-28T01:40:55;7.78;;;2.25;;
2187;SDS011;1100;52.014;8.540;2023-02-28T01:45:49;7.25;;;2.42;;
2187;SDS011;1100;52.014;8.540;2023-02-28T01:48:14;7.90;;;2.80;;
2187;SDS011;1100;52.014;8.540;2023-02-28T01:50:41;10.45;;;2.78;;
2187;SDS011;1100;52.014;8.540;2023-02-28T01:53:14;8.82;;;2.55;;
2187;SDS011;1100;52.014;8.540;2023-02-28T01:55:42;6.70;;;2.50;;
2187;SDS011;1100;52.014;8.540;2023-02-28T01:58:13;9.10;;;2.33;;
2187;SDS011;1100;52.014;8.540;2023-02-28T02:00:39;9.32;;;3.10;;
2187;SDS011;1100;52.014;8.540;2023-02-28T02:03:08;8.93;;;2.80;;
2187;SDS011;1100;52.014;8.540;2023-02-28T02:05:36;8.17;;;2.90;;
2187;SDS011;1100;52.014;8.540;2023-02-28T02:08:04;10.27;;;3.20;;
2187;SDS011;1100;52.014;8.540;2023-02-28T02:19:04;6.60;;;2.57;;
2187;SDS011;1100;52.014;8.540;2023-02-28T02:22:07;7.20;;;2.70;;
2187;SDS011;1100;52.014;8.540;2023-02-28T02:24:59;9.50;;;2.85;;
2187;SDS011;1100;52.014;8.540;2023-02-28T02:30:44;8.25;;;3.10;;
2187;SDS011;1100;52.014;8.540;2023-02-28T02:36:22;9.52;;;3.28;;
2187;SDS011;1100;52.014;8.540;2023-02-28T02:41:44;8.25;;;2.65;;
2187;SDS011;1100;52.014;8.540;2023-02-28T02:46:48;9.23;;;3.20;;
2187;SDS011;1100;52.014;8.540;2023-02-28T02:49:22;11.70;;;3.40;;
2187;SDS011;1100;52.014;8.540;2023-02-28T02:51:52;9.68;;;3.00;;
2187;SDS011;1100;52.014;8.540;2023-02-28T02:54:21;10.02;;;2.88;;
2187;SDS011;1100;52.014;8.540;2023-02-28T02:56:53;8.32;;;2.80;;
2187;SDS011;1100;52.014;8.540;2023-02-28T02:59:20;13.67;;;3.63;;
2187;SDS011;1100;52.014;8.540;2023-02-28T03:01:49;9.90;;;3.08;;
2187;SDS011;1100;52.014;8.540;2023-02-28T03:04:18;10.35;;;3.38;;
2187;SDS011;1100;52.014;8.540;2023-02-28T03:06:45;10.25;;;3.17;;
2187;SDS011;1100;52.014;8.540;2023-02-28T03:09:10;8.03;;;2.87;;
2187;SDS011;1100;52.014;8.540;2023-02-28T03:11:36;8.83;;;3.33;;
2187;SDS011;1100;52.014;8.540;2023-02-28T03:30:00;9.77;;;2.90;;
2187;SDS011;1100;52.014;8.540;2023-02-28T03:32:31;7.00;;;2.87;;
2187;SDS011;1100;52.014;8.540;2023-02-28T03:35:11;7.22;;;2.70;;
2187;SDS011;1100;52.014;8.540;2023-02-28T03:37:46;9.40;;;3.33;;
2187;SDS011;1100;52.014;8.540;2023-02-28T03:40:29;9.35;;;3.20;;
2187;SDS011;1100;52.014;8.540;2023-02-28T03:42:59;8.80;;;3.50;;
2187;SDS011;1100;52.014;8.540;2023-02-28T03:45:33;8.17;;;2.70;;
2187;SDS011;1100;52.014;8.540;2023-02-28T03:48:03;10.13;;;3.15;;
2187;SDS011;1100;52.014;8.540;2023-02-28T03:50:37;6.28;;;2.92;;
2187;SDS011;1100;52.014;8.540;2023-02-28T03:58:37;8.27;;;2.97;;
2187;SDS011;1100;52.014;8.540;2023-02-28T04:01:06;8.20;;;3.00;;
2187;SDS011;1100;52.014;8.540;2023-02-28T04:03:36;9.43;;;3.55;;
2187;SDS011;1100;52.014;8.540;2023-02-28T04:06:02;9.15;;;3.05;;
2187;SDS011;1100;52.014;8.540;2023-02-28T04:08:30;8.38;;;3.00;;
2187;SDS011;1100;52.014;8.540;2023-02-28T04:10:58;9.50;;;3.30;;
2187;SDS011;1100;52.014;8.540;2023-02-28T04:13:31;11.43;;;3.28;;
2187;SDS011;1100;52.014;8.540;2023-02-28T04:15:57;8.03;;;3.00;;
2187;SDS011;1100;52.014;8.540;2023-02-28T04:18:22;8.83;;;3.37;;
2187;SDS011;1100;52.014;8.540;2023-02-28T04:20:47;8.13;;;2.80;;
2187;SDS011;1100;52.014;8.540;2023-02-28T04:23:13;11.57;;;3.90;;
2187;SDS011;1100;52.014;8.540;2023-02-28T04:25:38;10.37;;;3.03;;
2187;SDS011;1100;52.014;8.540;2023-02-28T04:28:05;10.02;;;3.10;;
2187;SDS011;1100;52.014;8.540;2023-02-28T04:30:30;8.33;;;3.03;;
2187;SDS011;1100;52.014;8.540;2023-02-28T04:32:57;10.27;;;2.95;;
2187;SDS011;1100;52.014;8.540;2023-02-28T04:35:23;7.45;;;2.80;;
2187;SDS011;1100;52.014;8.540;2023-02-28T04:37:48;10.17;;;3.10;;
2187;SDS011;1100;52.014;8.540;2023-02-28T04:40:13;9.83;;;3.07;;
2187;SDS011;1100;52.014;8.540;2023-02-28T04:42:39;9.37;;;3.30;;
2187;SDS011;1100;52.014;8.540;2023-02-28T04:45:04;9.43;;;3.13;;
2187;SDS011;1100;52.014;8.540;2023-02-28T04:47:30;8.85;;;3.25;;
2187;SDS011;1100;52.014;8.540;2023-02-28T04:49:56;10.63;;;3.03;;
2187;SDS011;1100;52.014;8.540;2023-02-28T04:52:21;7.95;;;2.83;;
2187;SDS011;1100;52.014;8.540;2023-02-28T04:54:47;8.53;;;3.17;;
2187;SDS011;1100;52.014;8.540;2023-02-28T04:57:12;9.10;;;3.13;;
2187;SDS011;1100;52.014;8.540;2023-02-28T04:59:37;9.77;;;3.17;;
2187;SDS011;1100;52.014;8.540;2023-02-28T05:02:03;7.70;;;3.00;;
2187;SDS011;1100;52.014;8.540;2023-02-28T05:04:32;9.50;;;3.03;;
2187;SDS011;1100;52.014;8.540;2023-02-28T05:06:59;11.48;;;3.63;;
2187;SDS011;1100;52.014;8.540;2023-02-28T05:09:25;10.13;;;3.28;;
2187;SDS011;1100;52.014;8.540;2023-02-28T05:11:50;7.67;;;2.80;;
2187;SDS011;1100;52.014;8.540;2023-02-28T05:14:15;7.60;;;2.70;;
2187;SDS011;1100;52.014;8.540;2023-02-28T05:16:41;7.73;;;3.37;;
2187;SDS011;1100;52.014;8.540;2023-02-28T05:19:06;9.70;;;3.17;;
2187;SDS011;1100;52.014;8.540;2023-02-28T05:21:33;9.77;;;3.80;;
2187;SDS011;1100;52.014;8.540;2023-02-28T05:24:03;15.30;;;5.65;;
2187;SDS011;1100;52.014;8.540;2023-02-28T05:26:30;13.73;;;4.57;;
2187;SDS011;1100;52.014;8.540;2023-02-28T05:28:58;11.48;;;4.35;;
2187;SDS011;1100;52.014;8.540;2023-02-28T05:31:24;9.63;;;3.80;;
2187;SDS011;1100;52.014;8.540;2023-02-28T05:33:49;9.20;;;3.58;;
2187;SDS011;1100;52.014;8.540;2023-02-28T05:36:15;10.13;;;4.37;;
2187;SDS011;1100;52.014;8.540;2023-02-28T05:38:40;10.63;;;3.30;;
2187;SDS011;1100;52.014;8.540;2023-02-28T05:41:09;10.43;;;3.80;;
2187;SDS011;1100;52.014;8.540;2023-02-28T05:43:35;9.35;;;3.60;;
2187;SDS011;1100;52.014;8.540;2023-02-28T05:46:02;7.75;;;3.20;;
2187;SDS011;1100;52.014;8.540;2023-02-28T05:48:32;9.82;;;3.72;;
2187;SDS011;1100;52.014;8.540;2023-02-28T05:50:58;11.10;;;3.17;;
2187;SDS011;1100;52.014;8.540;2023-02-28T05:53:23;9.60;;;3.10;;
2187;SDS011;1100;52.014;8.540;2023-02-28T05:55:49;12.80;;;3.33;;
2187;SDS011;1100;52.014;8.540;2023-02-28T05:58:14;10.70;;;3.37;;
2187;SDS011;1100;52.014;8.540;2023-02-28T06:00:39;9.93;;;3.60;;
2187;SDS011;1100;52.014;8.540;2023-02-28T06:03:05;8.50;;;3.10;;
2187;SDS011;1100;52.014;8.540;2023-02-28T06:05:30;8.83;;;2.90;;
2187;SDS011;1100;52.014;8.540;2023-02-28T06:07:55;9.33;;;3.07;;
2187;SDS011;1100;52.014;8.540;2023-02-28T06:10:21;8.77;;;3.03;;
2187;SDS011;1100;52.014;8.540;2023-02-28T06:12:46;7.17;;;3.10;;
2187;SDS011;1100;52.014;8.540;2023-02-28T06:15:12;7.67;;;2.83;;
2187;SDS011;1100;52.014;8.540;2023-02-28T06:17:39;7.57;;;2.97;;
2187;SDS011;1100;52.014;8.540;2023-02-28T06:20:09;8.10;;;3.23;;
2187;SDS011;1100;52.014;8.540;2023-02-28T06:22:37;7.40;;;2.42;;
2187;SDS011;1100;52.014;8.540;2023-02-28T06:25:04;7.40;;;2.72;;
2187;SDS011;1100;52.014;8.540;2023-02-28T06:27:30;7.90;;;2.72;;
2187;SDS011;1100;52.014;8.540;2023-02-28T06:29:56;9.40;;;2.63;;
2187;SDS011;1100;52.014;8.540;2023-02-28T06:32:22;7.47;;;2.83;;
2187;SDS011;1100;52.014;8.540;2023-02-28T06:34:47;9.20;;;2.80;;
2187;SDS011;1100;52.014;8.540;2023-02-28T06:37:13;9.23;;;3.17;;
2187;SDS011;1100;52.014;8.540;2023-02-28T06:39:38;7.33;;;2.87;;
2187;SDS011;1100;52.014;8.540;2023-02-28T06:42:04;8.82;;;2.83;;
2187;SDS011;1100;52.014;8.540;2023-02-28T06:44:29;7.03;;;2.50;;
2187;SDS011;1100;52.014;8.540;2023-02-28T06:47:00;8.75;;;2.70;;
2187;SDS011;1100;52.014;8.540;2023-02-28T06:49:28;8.75;;;3.13;;
2187;SDS011;1100;52.014;8.540;2023-02-28T06:51:54;7.63;;;2.78;;
2187;SDS011;1100;52.014;8.540;2023-02-28T06:54:19;9.17;;;2.87;;
2187;SDS011;1100;52.014;8.540;2023-02-28T06:56:45;8.37;;;2.77;;
2187;SDS011;1100;52.014;8.540;2023-02-28T06:59:11;8.38;;;2.50;;
2187;SDS011;1100;52.014;8.540;2023-02-28T07:01:37;6.77;;;2.70;;
2187;SDS011;1100;52.014;8.540;2023-02-28T07:04:03;6.30;;;2.60;;
2187;SDS011;1100;52.014;8.540;2023-02-28T07:06:30;9.83;;;3.23;;
2187;SDS011;1100;52.014;8.540;2023-02-28T07:08:56;8.32;;;2.97;;
2187;SDS011;1100;52.014;8.540;2023-02-28T07:11:22;10.87;;;3.20;;
2187;SDS011;1100;52.014;8.540;2023-02-28T07:13:50;8.25;;;2.80;;
2187;SDS011;1100;52.014;8.540;2023-02-28T07:16:16;6.82;;;2.75;;
2187;SDS011;1100;52.014;8.540;2023-02-28T07:18:41;10.00;;;3.20;;
2187;SDS011;1100;52.014;8.540;2023-02-28T07:21:08;6.80;;;2.47;;
2187;SDS011;1100;52.014;8.540;2023-02-28T07:23:34;7.85;;;2.45;;
2187;SDS011;1100;52.014;8.540;2023-02-28T07:26:00;7.37;;;2.43;;
2187;SDS011;1100;52.014;8.540;2023-02-28T07:28:26;6.07;;;2.47;;
2187;SDS011;1100;52.014;8.540;2023-02-28T07:30:51;7.27;;;2.40;;
2187;SDS011;1100;52.014;8.540;2023-02-28T07:33:17;7.67;;;2.80;;
2187;SDS011;1100;52.014;8.540;2023-02-28T07:35:42;8.02;;;3.45;;
2187;SDS011;1100;52.014;8.540;2023-02-28T07:38:07;8.17;;;3.03;;
2187;SDS011;1100;52.014;8.540;2023-02-28T07:40:34;8.10;;;3.00;;
2187;SDS011;1100;52.014;8.540;2023-02-28T07:43:00;8.30;;;3.33;;
2187;SDS011;1100;52.014;8.540;2023-02-28T07:45:26;9.18;;;3.85;;
2187;SDS011;1100;52.014;8.540;2023-02-28T07:47:53;10.45;;;4.05;;
2187;SDS011;1100;52.014;8.540;2023-02-28T07:50:19;9.57;;;4.27;;
2187;SDS011;1100;52.014;8.540;2023-02-28T07:52:45;9.35;;;4.18;;
2187;SDS011;1100;52.014;8.540;2023-02-28T07:55:10;13.37;;;4.20;;
2187;SDS011;1100;52.014;8.540;2023-02-28T07:57:35;9.13;;;3.93;;
2187;SDS011;1100;52.014;8.540;2023-02-28T08:00:05;8.95;;;4.55;;
2187;SDS011;1100;52.014;8.540;2023-02-28T08:02:32;12.00;;;4.33;;
2187;SDS011;1100;52.014;8.540;2023-02-28T08:04:57;11.20;;;4.78;;
2187;SDS011;1100;52.014;8.540;2023-02-28T08:07:24;15.23;;;5.10;;
2187;SDS011;1100;52.014;8.540;2023-02-28T08:09:51;13.68;;;5.32;;
2187;SDS011;1100;52.014;8.540;2023-02-28T08:12:16;14.43;;;5.33;;
2187;SDS011;1100;52.014;8.540;2023-02-28T08:14:41;12.67;;;5.20;;
2187;SDS011;1100;52.014;8.540;2023-02-28T08:17:07;10.10;;;4.13;;
2187;SDS011;1100;52.014;8.540;2023-02-28T08:19:32;10.20;;;3.80;;
2187;SDS011;1100;52.014;8.540;2023-02-28T08:21:57;9.43;;;3.60;;
2187;SDS011;1100;52.014;8.540;2023-02-28T08:24:23;10.37;;;3.43;;
2187;SDS011;1100;52.014;8.540;2023-02-28T08:26:49;9.50;;;3.30;;
2187;SDS011;1100;52.014;8.540;2023-02-28T08:29:14;9.03;;;3.47;;
2187;SDS011;1100;52.014;8.540;2023-02-28T08:31:39;9.67;;;4.13;;
2187;SDS011;1100;52.014;8.540;2023-02-28T08:34:06;9.00;;;3.92;;
2187;SDS011;1100;52.014;8.540;2023-02-28T08:36:36;9.30;;;3.55;;
2187;SDS011;1100;52.014;8.540;2023-02-28T08:39:02;8.17;;;3.00;;
2187;SDS011;1100;52.014;8.540;2023-02-28T08:41:28;10.45;;;3.63;;
2187;SDS011;1100;52.014;8.540;2023-02-28T08:43:53;7.23;;;2.90;;
2187;SDS011;1100;52.014;8.540;2023-02-28T08:46:19;10.32;;;3.53;;
2187;SDS011;1100;52.014;8.540;2023-02-28T08:48:44;7.53;;;3.30;;
2187;SDS011;1100;52.014;8.540;2023-02-28T08:51:11;9.80;;;3.27;;
2187;SDS011;1100;52.014;8.540;2023-02-28T08:53:39;9.90;;;3.63;;
2187;SDS011;1100;52.014;8.540;2023-02-28T08:56:06;9.05;;;3.28;;
2187;SDS011;1100;52.014;8.540;2023-02-28T08:58:33;7.05;;;2.92;;
2187;SDS011;1100;52.014;8.540;2023-02-28T09:00:59;7.32;;;2.70;;
2187;SDS011;1100;52.014;8.540;2023-02-28T09:03:24;6.27;;;2.43;;
2187;SDS011;1100;52.014;8.540;2023-02-28T09:05:57;5.20;;;2.10;;
2187;SDS011;1100;52.014;8.540;2023-02-28T09:08:24;6.07;;;2.05;;
2187;SDS011;1100;52.014;8.540;2023-02-28T09:10:50;6.20;;;2.38;;
2187;SDS011;1100;52.014;8.540;2023-02-28T09:13:17;5.87;;;1.90;;
2187;SDS011;1100;52.014;8.540;2023-02-28T09:15:43;6.28;;;2.33;;
2187;SDS011;1100;52.014;8.540;2023-02-28T09:18:08;5.78;;;1.98;;
2187;SDS011;1100;52.014;8.540;2023-02-28T09:20:34;5.90;;;2.50;;
2187;SDS011;1100;52.014;8.540;2023-02-28T09:22:59;6.47;;;2.20;;
2187;SDS011;1100;52.014;8.540;2023-02-28T09:25:24;5.50;;;2.23;;
2187;SDS011;1100;52.014;8.540;2023-02-28T09:27:50;5.77;;;2.30;;
2187;SDS011;1100;52.014;8.540;2023-02-28T09:30:15;5.97;;;2.40;;
2187;SDS011;1100;52.014;8.540;2023-02-28T09:32:41;7.47;;;2.30;;
2187;SDS011;1100;52.014;8.540;2023-02-28T09:35:06;7.23;;;2.43;;
2187;SDS011;1100;52.014;8.540;2023-02-28T09:37:38;6.70;;;2.58;;
2187;SDS011;1100;52.014;8.540;2023-02-28T09:40:03;6.83;;;2.07;;
2187;SDS011;1100;52.014;8.540;2023-02-28T09:42:32;5.55;;;1.77;;
2187;SDS011;1100;52.014;8.540;2023-02-28T09:45:00;5.80;;;2.20;;
2187;SDS011;1100;52.014;8.540;2023-02-28T09:47:32;7.20;;;2.42;;
2187;SDS011;1100;52.014;8.540;2023-02-28T09:50:29;6.07;;;2.30;;
2187;SDS011;1100;52.014;8.540;2023-02-28T09:52:57;8.20;;;2.47;;
2187;SDS011;1100;52.014;8.540;2023-02-28T09:57:58;6.43;;;1.90;;
2187;SDS011;1100;52.014;8.540;2023-02-28T10:00:30;6.55;;;2.00;;
2187;SDS011;1100;52.014;8.540;2023-02-28T10:05:49;6.77;;;1.87;;
2187;SDS011;1100;52.014;8.540;2023-02-28T10:08:19;4.32;;;1.50;;
2187;SDS011;1100;52.014;8.540;2023-02-28T10:10:51;4.13;;;1.35;;
2187;SDS011;1100;52.014;8.540;2023-02-28T10:16:17;5.35;;;1.80;;
2187;SDS011;1100;52.014;8.540;2023-02-28T10:18:49;6.17;;;1.60;;
2187;SDS011;1100;52.014;8.540;2023-02-28T10:21:23;5.55;;;1.60;;
2187;SDS011;1100;52.014;8.540;2023-02-28T10:24:03;5.57;;;1.60;;
2187;SDS011;1100;52.014;8.540;2023-02-28T10:26:43;4.43;;;1.50;;
2187;SDS011;1100;52.014;8.540;2023-02-28T10:29:12;4.57;;;1.30;;
2187;SDS011;1100;52.014;8.540;2023-02-28T10:31:37;4.23;;;1.07;;
2187;SDS011;1100;52.014;8.540;2023-02-28T10:34:04;10.20;;;1.52;;
2187;SDS011;1100;52.014;8.540;2023-02-28T10:36:31;4.27;;;1.10;;
2187;SDS011;1100;52.014;8.540;2023-02-28T10:38:57;4.40;;;0.90;;
2187;SDS011;1100;52.014;8.540;2023-02-28T10:41:31;8.43;;;2.10;;
2187;SDS011;1100;52.014;8.540;2023-02-28T10:44:20;5.57;;;1.40;;
2187;SDS011;1100;52.014;8.540;2023-02-28T10:46:48;4.57;;;1.13;;
2187;SDS011;1100;52.014;8.540;2023-02-28T10:49:17;3.83;;;1.00;;
2187;SDS011;1100;52.014;8.540;2023-02-28T10:51:47;3.55;;;0.75;;
2187;SDS011;1100;52.014;8.540;2023-02-28T10:54:19;3.30;;;0.60;;
2187;SDS011;1100;52.014;8.540;2023-02-28T10:59:31;4.63;;;0.77;;
2187;SDS011;1100;52.014;8.540;2023-02-28T11:01:57;4.57;;;0.70;;
2187;SDS011;1100;52.014;8.540;2023-02-28T11:06:51;4.50;;;1.00;;
2187;SDS011;1100;52.014;8.540;2023-02-28T11:09:24;3.35;;;0.80;;
2187;SDS011;1100;52.014;8.540;2023-02-28T11:11:54;3.95;;;0.68;;
2187;SDS011;1100;52.014;8.540;2023-02-28T11:14:30;3.97;;;0.80;;
2187;SDS011;1100;52.014;8.540;2023-02-28T11:17:02;3.85;;;0.50;;
2187;SDS011;1100;52.014;8.540;2023-02-28T11:19:39;3.27;;;0.53;;
2187;SDS011;1100;52.014;8.540;2023-02-28T11:22:09;2.88;;;0.57;;
2187;SDS011;1100;52.014;8.540;2023-02-28T11:24:45;3.92;;;0.68;;
2187;SDS011;1100;52.014;8.540;2023-02-28T11:29:56;2.97;;;0.50;;
2187;SDS011;1100;52.014;8.540;2023-02-28T11:32:24;4.07;;;0.57;;
2187;SDS011;1100;52.014;8.540;2023-02-28T11:35:01;4.13;;;0.50;;
2187;SDS011;1100;52.014;8.540;2023-02-28T11:37:36;3.35;;;0.70;;
2187;SDS011;1100;52.014;8.540;2023-02-28T11:40:01;3.92;;;0.68;;
2187;SDS011;1100;52.014;8.540;2023-02-28T11:45:28;3.07;;;0.50;;
2187;SDS011;1100;52.014;8.540;2023-02-28T11:48:22;4.57;;;0.60;;
2187;SDS011;1100;52.014;8.540;2023-02-28T11:56:31;3.35;;;0.75;;
2187;SDS011;1100;52.014;8.540;2023-02-28T12:01:50;2.95;;;0.80;;
2187;SDS011;1100;52.014;8.540;2023-02-28T12:04:24;5.55;;;0.90;;
2187;SDS011;1100;52.014;8.540;2023-02-28T12:21:04;3.60;;;0.80;;
2187;SDS011;1100;52.014;8.540;2023-02-28T12:26:50;4.20;;;1.10;;
2187;SDS011;1100;52.014;8.540;2023-02-28T12:29:30;4.50;;;0.90;;
2187;SDS011;1100;52.014;8.540;2023-02-28T12:32:06;5.60;;;1.10;;
2187;SDS011;1100;52.014;8.540;2023-02-28T12:34:46;3.97;;;0.93;;
2187;SDS011;1100;52.014;8.540;2023-02-28T12:37:27;3.50;;;0.90;;
2187;SDS011;1100;52.014;8.540;2023-02-28T12:40:03;4.47;;;0.80;;
2187;SDS011;1100;52.014;8.540;2023-02-28T12:42:45;5.50;;;0.80;;
2187;SDS011;1100;52.014;8.540;2023-02-28T12:45:22;5.03;;;1.10;;
2187;SDS011;1100;52.014;8.540;2023-02-28T12:47:55;4.30;;;0.70;;
2187;SDS011;1100;52.014;8.540;2023-02-28T12:50:23;3.45;;;0.88;;
2187;SDS011;1100;52.014;8.540;2023-02-28T12:55:27;5.82;;;0.80;;
2187;SDS011;1100;52.014;8.540;2023-02-28T12:58:12;4.07;;;1.20;;
2187;SDS011;1100;52.014;8.540;2023-02-28T13:03:38;5.47;;;1.02;;
2187;SDS011;1100;52.014;8.540;2023-02-28T13:09:17;5.47;;;1.00;;
2187;SDS011;1100;52.014;8.540;2023-02-28T13:11:44;3.85;;;0.98;;
2187;SDS011;1100;52.014;8.540;2023-02-28T13:19:36;5.17;;;1.03;;
2187;SDS011;1100;52.014;8.540;2023-02-28T13:22:04;6.00;;;0.90;;
2187;SDS011;1100;52.014;8.540;2023-02-28T13:29:37;5.77;;;1.30;;
2187;SDS011;1100;52.014;8.540;2023-02-28T13:34:34;4.60;;;1.17;;
2187;SDS011;1100;52.014;8.540;2023-02-28T13:37:36;4.28;;;1.20;;
2187;SDS011;1100;52.014;8.540;2023-02-28T13:48:14;4.73;;;1.50;;
2187;SDS011;1100;52.014;8.540;2023-02-28T14:06:18;5.32;;;1.10;;
2187;SDS011;1100;52.014;8.540;2023-02-28T14:11:44;5.05;;;1.33;;
2187;SDS011;1100;52.014;8.540;2023-02-28T14:14:53;6.85;;;1.30;;
2187;SDS011;1100;52.014;8.540;2023-02-28T14:17:03;5.72;;;1.42;;
2187;SDS011;1100;52.014;8.540;2023-02-28T14:19:30;5.57;;;1.70;;
2187;SDS011;1100;52.014;8.540;2023-02-28T14:22:12;5.87;;;1.30;;
2187;SDS011;1100;52.014;8.540;2023-02-28T14:24:59;4.50;;;1.30;;
2187;SDS011;1100;52.014;8.540;2023-02-28T14:27:58;5.18;;;1.23;;
2187;SDS011;1100;52.014;8.540;2023-02-28T14:36:35;4.30;;;1.30;;
2187;SDS011;1100;52.014;8.540;2023-02-28T14:39:14;4.90;;;1.20;;
2187;SDS011;1100;52.014;8.540;2023-02-28T14:41:44;5.82;;;1.35;;
2187;SDS011;1100;52.014;8.540;2023-02-28T14:46:48;4.75;;;1.50;;
2187;SDS011;1100;52.014;8.540;2023-02-28T14:49:20;3.80;;;1.00;;
2187;SDS011;1100;52.014;8.540;2023-02-28T14:51:50;4.30;;;1.30;;
2187;SDS011;1100;52.014;8.540;2023-02-28T14:54:46;4.78;;;1.20;;
2187;SDS011;1100;52.014;8.540;2023-02-28T15:00:06;5.97;;;1.30;;
2187;SDS011;1100;52.014;8.540;2023-02-28T15:02:39;4.53;;;1.30;;
2187;SDS011;1100;52.014;8.540;2023-02-28T15:07:45;5.40;;;1.58;;
2187;SDS011;1100;52.014;8.540;2023-02-28T15:12:58;5.90;;;1.30;;
2187;SDS011;1100;52.014;8.540;2023-02-28T15:16:11;4.23;;;1.20;;
2187;SDS011;1100;52.014;8.540;2023-02-28T15:20:57;4.28;;;1.42;;
2187;SDS011;1100;52.014;8.540;2023-02-28T15:23:27;3.53;;;0.93;;
2187;SDS011;1100;52.014;8.540;2023-02-28T15:25:54;5.22;;;1.33;;
2187;SDS011;1100;52.014;8.540;2023-02-28T15:28:20;4.63;;;1.37;;
2187;SDS011;1100;52.014;8.540;2023-02-28T15:30:51;4.47;;;1.60;;
2187;SDS011;1100;52.014;8.540;2023-02-28T15:33:20;3.90;;;1.00;;
2187;SDS011;1100;52.014;8.540;2023-02-28T15:35:47;5.50;;;1.35;;
2187;SDS011;1100;52.014;8.540;2023-02-28T15:38:23;5.07;;;1.30;;
2187;SDS011;1100;52.014;8.540;2023-02-28T15:43:26;5.80;;;1.38;;
2187;SDS011;1100;52.014;8.540;2023-02-28T15:46:02;4.00;;;1.33;;
2187;SDS011;1100;52.014;8.540;2023-02-28T15:48:33;4.63;;;1.25;;
2187;SDS011;1100;52.014;8.540;2023-02-28T15:51:05;7.93;;;1.70;;
2187;SDS011;1100;52.014;8.540;2023-02-28T15:53:59;4.65;;;1.60;;
2187;SDS011;1100;52.014;8.540;2023-02-28T15:56:30;5.82;;;1.60;;
2187;SDS011;1100;52.014;8.540;2023-02-28T15:58:57;4.83;;;1.60;;
2187;SDS011;1100;52.014;8.540;2023-02-28T16:01:27;5.57;;;1.50;;
2187;SDS011;1100;52.014;8.540;2023-02-28T16:03:56;4.60;;;1.42;;
2187;SDS011;1100;52.014;8.540;2023-02-28T16:06:26;4.55;;;1.40;;
2187;SDS011;1100;52.014;8.540;2023-02-28T16:08:58;5.25;;;1.55;;
2187;SDS011;1100;52.014;8.540;2023-02-28T16:11:23;6.40;;;1.50;;
2187;SDS011;1100;52.014;8.540;2023-02-28T16:13:49;5.93;;;1.50;;
2187;SDS011;1100;52.014;8.540;2023-02-28T16:16:17;6.47;;;1.50;;
2187;SDS011;1100;52.014;8.540;2023-02-28T16:18:47;4.65;;;1.40;;
2187;SDS011;1100;52.014;8.540;2023-02-28T16:21:13;4.88;;;1.60;;
2187;SDS011;1100;52.014;8.540;2023-02-28T16:23:38;5.77;;;1.77;;
2187;SDS011;1100;52.014;8.540;2023-02-28T16:26:04;7.33;;;1.70;;
2187;SDS011;1100;52.014;8.540;2023-02-28T16:28:32;4.82;;;1.50;;
2187;SDS011;1100;52.014;8.540;2023-02-28T16:31:00;6.15;;;1.55;;
2187;SDS011;1100;52.014;8.540;2023-02-28T16:33:30;5.63;;;1.70;;
2187;SDS011;1100;52.014;8.540;2023-02-28T16:35:56;4.40;;;1.55;;
2187;SDS011;1100;52.014;8.540;2023-02-28T16:38:21;6.10;;;1.60;;
2187;SDS011;1100;52.014;8.540;2023-02-28T16:40:48;5.82;;;1.50;;
2187;SDS011;1100;52.014;8.540;2023-02-28T16:43:15;4.97;;;1.40;;
2187;SDS011;1100;52.014;8.540;2023-02-28T16:45:44;5.22;;;1.60;;
2187;SDS011;1100;52.014;8.540;2023-02-28T16:48:16;5.15;;;1.50;;
2187;SDS011;1100;52.014;8.540;2023-02-28T16:50:41;4.20;;;1.53;;
2187;SDS011;1100;52.014;8.540;2023-02-28T16:53:09;5.35;;;1.38;;
2187;SDS011;1100;52.014;8.540;2023-02-28T16:55:35;6.07;;;1.45;;
2187;SDS011;1100;52.014;8.540;2023-02-28T16:58:00;4.83;;;1.63;;
2187;SDS011;1100;52.014;8.540;2023-02-28T17:00:27;6.53;;;1.88;;
2187;SDS011;1100;52.014;8.540;2023-02-28T17:02:54;6.57;;;1.50;;
2187;SDS011;1100;52.014;8.540;2023-02-28T17:05:20;7.10;;;1.33;;
2187;SDS011;1100;52.014;8.540;2023-02-28T17:07:47;5.18;;;1.45;;
2187;SDS011;1100;52.014;8.540;2023-02-28T17:10:17;6.50;;;1.50;;
2187;SDS011;1100;52.014;8.540;2023-02-28T17:12:42;6.50;;;1.40;;
2187;SDS011;1100;52.014;8.540;2023-02-28T17:15:09;4.88;;;1.45;;
2187;SDS011;1100;52.014;8.540;2023-02-28T17:17:36;10.47;;;2.57;;
2187;SDS011;1100;52.014;8.540;2023-02-28T17:20:01;6.05;;;1.85;;
2187;SDS011;1100;52.014;8.540;2023-02-28T17:22:27;7.40;;;2.20;;
2187;SDS011;1100;52.014;8.540;2023-02-28T17:24:53;7.33;;;2.70;;
2187;SDS011;1100;52.014;8.540;2023-02-28T17:27:22;7.45;;;2.25;;
2187;SDS011;1100;52.014;8.540;2023-02-28T17:29:47;5.47;;;1.70;;
2187;SDS011;1100;52.014;8.540;2023-02-28T17:32:13;7.85;;;1.70;;
2187;SDS011;1100;52.014;8.540;2023-02-28T17:34:38;6.17;;;1.70;;
2187;SDS011;1100;52.014;8.540;2023-02-28T17:37:04;5.20;;;1.67;;
2187;SDS011;1100;52.014;8.540;2023-02-28T17:39:29;6.00;;;2.37;;
2187;SDS011;1100;52.014;8.540;2023-02-28T17:41:55;7.50;;;2.30;;
2187;SDS011;1100;52.014;8.540;2023-02-28T17:44:21;5.95;;;2.03;;
2187;SDS011;1100;52.014;8.540;2023-02-28T17:46:51;6.05;;;2.15;;
2187;SDS011;1100;52.014;8.540;2023-02-28T17:49:19;5.80;;;2.00;;
2187;SDS011;1100;52.014;8.540;2023-02-28T17:51:44;5.50;;;2.20;;
2187;SDS011;1100;52.014;8.540;2023-02-28T17:54:10;7.07;;;2.63;;
2187;SDS011;1100;52.014;8.540;2023-02-28T17:56:35;8.40;;;2.33;;
2187;SDS011;1100;52.014;8.540;2023-02-28T17:59:01;8.52;;;2.17;;
2187;SDS011;1100;52.014;8.540;2023-02-28T18:01:27;5.70;;;2.13;;
2187;SDS011;1100;52.014;8.540;2023-02-28T18:03:53;9.40;;;3.00;;